Arnprior, Canada
Current Conditions -  °F | °C
As of 12:00 AM on Tuesday 21 Oct 2014 (Local Time) from CYOW Reporting Station
Light Rain Light Rain  
Wind Chill: 32°   Ceiling: 400
Heat Index: 39°   Visibility: 7mi
Dew Point: 39°   Wind: 13mph
Humidity: 100%   Direction: 60°ENE
Pressure: 29.9"   Gusts: NA
Location:  45.43°N, 76.37°W
Report Text: CYOW 210400Z 06011KT 7SM -RA OVC004 04/04 A2990 RMK SC8 SLP128
Loading
Personal Weather Stations






























Interactive Weather Map
Tropical Storm Tracking
New forecast layout! Learn more

10-Day Weather Forecast

Advertisements
Track Severe Weather on mobile